Terminal Aerodrome Forecast
Issued by NWS

Home | Current Version | Previous Version | Text Only | Print | Product List | Glossary On
Versions: 1 2 3 4 5 6 7 8 9 10 11 12 13 14 15 16 17 18 19 20 21 22 23 24 25 26
759
FTUS43 KGLD 281125
TAFMCK
TAF
KMCK 281125Z 2812/2912 29010KT P6SM SCT250
     FM281800 36006KT P6SM BKN110
     FM282000 03006KT P6SM BKN070
     FM282200 05008KT P6SM VCSH BKN040
     FM290600 06008KT P6SM VCSH OVC008
     FM291000 05009KT 3SM SHRA OVC003=

USA.gov is the U.S. government's official web portal to all federal, state and local government web resources and services.